Jalhay, Belgium
Current Conditions -  °F | °C
As of 1:25 AM on Sunday 26 Oct 2014 (Local Time) from EBLB Reporting Station
Overcast Overcast  
Wind Chill: 41°   Ceiling: 100
Heat Index: 41°   Visibility: 0.12mi
Dew Point: 41°   Wind: 3mph
Humidity: 100%   Direction: NA
Pressure: 30.24"   Gusts: NA
Location:  50.56°N, 5.97°E
Report Text: EBLB 252325Z AUTO VRB03KT 0200 VV001/// 05/05 Q1024 RED
Loading
Personal Weather Stations






























Interactive Weather Map
Tropical Storm Tracking
New forecast layout! Learn more

10-Day Weather Forecast

Advertisements
Track Severe Weather on mobile